sensor_id;sensor_type;location;lat;lon;timestamp;P1;durP1;ratioP1;P2;durP2;ratioP2
24157;SDS011;12316;50.904;4.200;2023-12-20T00:00:36;7.80;;;2.15;;
24157;SDS011;12316;50.904;4.200;2023-12-20T00:03:03;13.38;;;2.75;;
24157;SDS011;12316;50.904;4.200;2023-12-20T00:05:29;17.50;;;2.58;;
24157;SDS011;12316;50.904;4.200;2023-12-20T00:07:57;12.95;;;2.20;;
24157;SDS011;12316;50.904;4.200;2023-12-20T00:10:22;14.13;;;2.22;;
24157;SDS011;12316;50.904;4.200;2023-12-20T00:12:48;14.20;;;2.15;;
24157;SDS011;12316;50.904;4.200;2023-12-20T00:15:14;11.32;;;2.53;;
24157;SDS011;12316;50.904;4.200;2023-12-20T00:17:39;11.45;;;2.83;;
24157;SDS011;12316;50.904;4.200;2023-12-20T00:20:05;16.20;;;2.80;;
24157;SDS011;12316;50.904;4.200;2023-12-20T00:22:31;14.63;;;2.38;;
24157;SDS011;12316;50.904;4.200;2023-12-20T00:24:57;13.35;;;2.40;;
24157;SDS011;12316;50.904;4.200;2023-12-20T00:27:22;8.85;;;2.08;;
24157;SDS011;12316;50.904;4.200;2023-12-20T00:29:48;20.52;;;2.83;;
24157;SDS011;12316;50.904;4.200;2023-12-20T00:32:15;13.85;;;2.47;;
24157;SDS011;12316;50.904;4.200;2023-12-20T00:34:41;12.23;;;2.38;;
24157;SDS011;12316;50.904;4.200;2023-12-20T00:37:08;11.35;;;2.42;;
24157;SDS011;12316;50.904;4.200;2023-12-20T00:39:33;11.95;;;3.20;;
24157;SDS011;12316;50.904;4.200;2023-12-20T00:41:59;17.25;;;2.80;;
24157;SDS011;12316;50.904;4.200;2023-12-20T00:44:25;15.35;;;2.88;;
24157;SDS011;12316;50.904;4.200;2023-12-20T00:46:51;11.40;;;2.70;;
24157;SDS011;12316;50.904;4.200;2023-12-20T00:49:17;18.52;;;3.10;;
24157;SDS011;12316;50.904;4.200;2023-12-20T00:51:42;16.42;;;2.63;;
24157;SDS011;12316;50.904;4.200;2023-12-20T00:54:08;11.32;;;2.53;;
24157;SDS011;12316;50.904;4.200;2023-12-20T00:56:34;10.02;;;3.25;;
24157;SDS011;12316;50.904;4.200;2023-12-20T00:59:01;15.93;;;3.17;;
24157;SDS011;12316;50.904;4.200;2023-12-20T01:01:27;18.85;;;3.13;;
24157;SDS011;12316;50.904;4.200;2023-12-20T01:03:52;11.98;;;3.22;;
24157;SDS011;12316;50.904;4.200;2023-12-20T01:06:18;13.20;;;3.17;;
24157;SDS011;12316;50.904;4.200;2023-12-20T01:08:44;12.73;;;3.85;;
24157;SDS011;12316;50.904;4.200;2023-12-20T01:11:10;15.00;;;3.72;;
24157;SDS011;12316;50.904;4.200;2023-12-20T01:13:35;16.15;;;3.50;;
24157;SDS011;12316;50.904;4.200;2023-12-20T01:16:01;16.33;;;3.35;;
24157;SDS011;12316;50.904;4.200;2023-12-20T01:18:27;17.65;;;3.50;;
24157;SDS011;12316;50.904;4.200;2023-12-20T01:20:53;23.38;;;3.85;;
24157;SDS011;12316;50.904;4.200;2023-12-20T01:23:19;17.52;;;3.75;;
24157;SDS011;12316;50.904;4.200;2023-12-20T01:25:44;17.30;;;3.92;;
24157;SDS011;12316;50.904;4.200;2023-12-20T01:28:10;11.68;;;3.40;;
24157;SDS011;12316;50.904;4.200;2023-12-20T01:30:36;19.33;;;3.45;;
24157;SDS011;12316;50.904;4.200;2023-12-20T01:33:01;17.20;;;3.90;;
24157;SDS011;12316;50.904;4.200;2023-12-20T01:35:27;12.82;;;3.67;;
24157;SDS011;12316;50.904;4.200;2023-12-20T01:37:53;16.65;;;3.90;;
24157;SDS011;12316;50.904;4.200;2023-12-20T01:40:22;11.18;;;3.53;;
24157;SDS011;12316;50.904;4.200;2023-12-20T01:42:48;17.52;;;3.80;;
24157;SDS011;12316;50.904;4.200;2023-12-20T01:45:23;16.13;;;3.90;;
24157;SDS011;12316;50.904;4.200;2023-12-20T01:47:49;16.73;;;4.00;;
24157;SDS011;12316;50.904;4.200;2023-12-20T01:50:15;22.55;;;4.47;;
24157;SDS011;12316;50.904;4.200;2023-12-20T01:52:41;15.52;;;3.60;;
24157;SDS011;12316;50.904;4.200;2023-12-20T01:55:08;13.27;;;3.13;;
24157;SDS011;12316;50.904;4.200;2023-12-20T01:57:38;19.98;;;3.85;;
24157;SDS011;12316;50.904;4.200;2023-12-20T02:00:06;17.10;;;3.85;;
24157;SDS011;12316;50.904;4.200;2023-12-20T02:02:33;12.38;;;3.75;;
24157;SDS011;12316;50.904;4.200;2023-12-20T02:04:59;16.65;;;3.53;;
24157;SDS011;12316;50.904;4.200;2023-12-20T02:07:25;24.77;;;3.75;;
24157;SDS011;12316;50.904;4.200;2023-12-20T02:09:51;17.77;;;3.70;;
24157;SDS011;12316;50.904;4.200;2023-12-20T02:12:17;17.63;;;4.03;;
24157;SDS011;12316;50.904;4.200;2023-12-20T02:14:44;16.02;;;3.63;;
24157;SDS011;12316;50.904;4.200;2023-12-20T02:17:09;12.45;;;3.30;;
24157;SDS011;12316;50.904;4.200;2023-12-20T02:19:35;15.48;;;3.78;;
24157;SDS011;12316;50.904;4.200;2023-12-20T02:24:33;19.45;;;4.00;;
24157;SDS011;12316;50.904;4.200;2023-12-20T02:26:58;16.27;;;3.63;;
24157;SDS011;12316;50.904;4.200;2023-12-20T02:29:24;22.60;;;4.00;;
24157;SDS011;12316;50.904;4.200;2023-12-20T02:31:50;14.32;;;3.90;;
24157;SDS011;12316;50.904;4.200;2023-12-20T02:34:16;18.27;;;4.05;;
24157;SDS011;12316;50.904;4.200;2023-12-20T02:36:41;14.68;;;3.70;;
24157;SDS011;12316;50.904;4.200;2023-12-20T02:39:07;20.20;;;4.80;;
24157;SDS011;12316;50.904;4.200;2023-12-20T02:41:33;17.70;;;3.90;;
24157;SDS011;12316;50.904;4.200;2023-12-20T02:43:58;17.30;;;4.40;;
24157;SDS011;12316;50.904;4.200;2023-12-20T02:46:24;15.43;;;4.15;;
24157;SDS011;12316;50.904;4.200;2023-12-20T02:48:50;14.48;;;4.28;;
24157;SDS011;12316;50.904;4.200;2023-12-20T02:51:15;21.08;;;4.30;;
24157;SDS011;12316;50.904;4.200;2023-12-20T02:53:41;22.25;;;4.43;;
24157;SDS011;12316;50.904;4.200;2023-12-20T02:56:06;24.88;;;4.80;;
24157;SDS011;12316;50.904;4.200;2023-12-20T02:58:32;20.75;;;4.22;;
24157;SDS011;12316;50.904;4.200;2023-12-20T03:00:58;22.63;;;4.40;;
24157;SDS011;12316;50.904;4.200;2023-12-20T03:03:24;21.55;;;4.05;;
24157;SDS011;12316;50.904;4.200;2023-12-20T03:05:50;22.33;;;4.78;;
24157;SDS011;12316;50.904;4.200;2023-12-20T03:08:15;16.13;;;4.20;;
24157;SDS011;12316;50.904;4.200;2023-12-20T03:10:41;10.80;;;4.13;;
24157;SDS011;12316;50.904;4.200;2023-12-20T03:13:07;15.95;;;4.07;;
24157;SDS011;12316;50.904;4.200;2023-12-20T03:15:32;14.30;;;3.90;;
24157;SDS011;12316;50.904;4.200;2023-12-20T03:17:58;20.25;;;4.55;;
24157;SDS011;12316;50.904;4.200;2023-12-20T03:20:24;12.02;;;4.00;;
24157;SDS011;12316;50.904;4.200;2023-12-20T03:22:51;14.90;;;3.83;;
24157;SDS011;12316;50.904;4.200;2023-12-20T03:25:16;16.35;;;4.40;;
24157;SDS011;12316;50.904;4.200;2023-12-20T03:27:42;20.30;;;4.30;;
24157;SDS011;12316;50.904;4.200;2023-12-20T03:30:08;15.35;;;3.70;;
24157;SDS011;12316;50.904;4.200;2023-12-20T03:32:34;26.25;;;4.22;;
24157;SDS011;12316;50.904;4.200;2023-12-20T03:35:00;19.00;;;4.15;;
24157;SDS011;12316;50.904;4.200;2023-12-20T03:37:25;14.23;;;3.65;;
24157;SDS011;12316;50.904;4.200;2023-12-20T03:39:51;14.00;;;3.50;;
24157;SDS011;12316;50.904;4.200;2023-12-20T03:42:17;16.80;;;3.83;;
24157;SDS011;12316;50.904;4.200;2023-12-20T03:44:42;15.50;;;3.38;;
24157;SDS011;12316;50.904;4.200;2023-12-20T03:47:08;17.90;;;3.90;;
24157;SDS011;12316;50.904;4.200;2023-12-20T03:49:33;16.17;;;3.33;;
24157;SDS011;12316;50.904;4.200;2023-12-20T03:52:02;18.02;;;3.50;;
24157;SDS011;12316;50.904;4.200;2023-12-20T03:54:28;14.82;;;3.45;;
24157;SDS011;12316;50.904;4.200;2023-12-20T03:56:53;15.70;;;3.65;;
24157;SDS011;12316;50.904;4.200;2023-12-20T03:59:19;14.07;;;3.70;;
24157;SDS011;12316;50.904;4.200;2023-12-20T04:01:45;15.40;;;3.70;;
24157;SDS011;12316;50.904;4.200;2023-12-20T04:04:10;16.15;;;3.45;;
24157;SDS011;12316;50.904;4.200;2023-12-20T04:06:37;20.35;;;4.22;;
24157;SDS011;12316;50.904;4.200;2023-12-20T04:09:03;14.80;;;3.13;;
24157;SDS011;12316;50.904;4.200;2023-12-20T04:11:28;15.18;;;3.22;;
24157;SDS011;12316;50.904;4.200;2023-12-20T04:13:54;14.27;;;3.05;;
24157;SDS011;12316;50.904;4.200;2023-12-20T04:16:20;12.73;;;3.20;;
24157;SDS011;12316;50.904;4.200;2023-12-20T04:18:45;14.60;;;3.42;;
24157;SDS011;12316;50.904;4.200;2023-12-20T04:21:11;12.43;;;3.10;;
24157;SDS011;12316;50.904;4.200;2023-12-20T04:23:36;13.63;;;3.15;;
24157;SDS011;12316;50.904;4.200;2023-12-20T04:26:02;12.02;;;3.00;;
24157;SDS011;12316;50.904;4.200;2023-12-20T04:28:28;16.52;;;3.75;;
24157;SDS011;12316;50.904;4.200;2023-12-20T04:30:55;14.05;;;3.13;;
24157;SDS011;12316;50.904;4.200;2023-12-20T04:33:21;16.83;;;3.40;;
24157;SDS011;12316;50.904;4.200;2023-12-20T04:35:47;16.48;;;3.80;;
24157;SDS011;12316;50.904;4.200;2023-12-20T04:38:13;15.00;;;3.08;;
24157;SDS011;12316;50.904;4.200;2023-12-20T04:40:39;16.08;;;3.65;;
24157;SDS011;12316;50.904;4.200;2023-12-20T04:43:06;17.92;;;3.58;;
24157;SDS011;12316;50.904;4.200;2023-12-20T04:45:32;15.95;;;3.95;;
24157;SDS011;12316;50.904;4.200;2023-12-20T04:47:58;15.48;;;3.72;;
24157;SDS011;12316;50.904;4.200;2023-12-20T04:50:23;22.17;;;3.55;;
24157;SDS011;12316;50.904;4.200;2023-12-20T04:52:49;22.42;;;3.65;;
24157;SDS011;12316;50.904;4.200;2023-12-20T04:55:15;13.73;;;3.28;;
24157;SDS011;12316;50.904;4.200;2023-12-20T04:57:41;14.40;;;3.20;;
24157;SDS011;12316;50.904;4.200;2023-12-20T05:00:06;15.77;;;3.25;;
24157;SDS011;12316;50.904;4.200;2023-12-20T05:02:33;17.13;;;3.90;;
24157;SDS011;12316;50.904;4.200;2023-12-20T05:05:00;14.85;;;3.10;;
24157;SDS011;12316;50.904;4.200;2023-12-20T05:07:25;17.73;;;3.08;;
24157;SDS011;12316;50.904;4.200;2023-12-20T05:09:51;15.60;;;3.67;;
24157;SDS011;12316;50.904;4.200;2023-12-20T05:12:17;19.23;;;3.65;;
24157;SDS011;12316;50.904;4.200;2023-12-20T05:14:42;11.35;;;3.35;;
24157;SDS011;12316;50.904;4.200;2023-12-20T05:17:08;18.27;;;3.85;;
24157;SDS011;12316;50.904;4.200;2023-12-20T05:19:33;26.83;;;3.47;;
24157;SDS011;12316;50.904;4.200;2023-12-20T05:22:00;17.92;;;3.60;;
24157;SDS011;12316;50.904;4.200;2023-12-20T05:24:27;17.80;;;3.60;;
24157;SDS011;12316;50.904;4.200;2023-12-20T05:26:52;12.07;;;3.30;;
24157;SDS011;12316;50.904;4.200;2023-12-20T05:29:18;18.80;;;3.47;;
24157;SDS011;12316;50.904;4.200;2023-12-20T05:31:44;19.15;;;3.50;;
24157;SDS011;12316;50.904;4.200;2023-12-20T05:34:09;22.40;;;3.38;;
24157;SDS011;12316;50.904;4.200;2023-12-20T05:36:35;24.40;;;3.97;;
24157;SDS011;12316;50.904;4.200;2023-12-20T05:39:01;21.67;;;3.45;;
24157;SDS011;12316;50.904;4.200;2023-12-20T05:41:29;19.23;;;3.50;;
24157;SDS011;12316;50.904;4.200;2023-12-20T05:43:55;12.90;;;3.30;;
24157;SDS011;12316;50.904;4.200;2023-12-20T05:46:20;21.33;;;3.55;;
24157;SDS011;12316;50.904;4.200;2023-12-20T05:48:46;21.17;;;3.53;;
24157;SDS011;12316;50.904;4.200;2023-12-20T05:51:12;17.00;;;3.17;;
24157;SDS011;12316;50.904;4.200;2023-12-20T05:53:38;13.65;;;3.28;;
24157;SDS011;12316;50.904;4.200;2023-12-20T05:56:04;16.20;;;3.50;;
24157;SDS011;12316;50.904;4.200;2023-12-20T05:58:30;16.08;;;3.78;;
24157;SDS011;12316;50.904;4.200;2023-12-20T06:00:57;12.95;;;2.80;;
24157;SDS011;12316;50.904;4.200;2023-12-20T06:03:22;18.17;;;3.70;;
24157;SDS011;12316;50.904;4.200;2023-12-20T06:05:48;17.85;;;3.10;;
24157;SDS011;12316;50.904;4.200;2023-12-20T06:08:14;12.75;;;3.20;;
24157;SDS011;12316;50.904;4.200;2023-12-20T06:10:39;15.60;;;3.20;;
24157;SDS011;12316;50.904;4.200;2023-12-20T06:13:05;17.65;;;3.33;;
24157;SDS011;12316;50.904;4.200;2023-12-20T06:15:32;15.98;;;3.47;;
24157;SDS011;12316;50.904;4.200;2023-12-20T06:17:58;18.92;;;3.08;;
24157;SDS011;12316;50.904;4.200;2023-12-20T06:20:23;13.30;;;3.20;;
24157;SDS011;12316;50.904;4.200;2023-12-20T06:22:49;13.98;;;3.58;;
24157;SDS011;12316;50.904;4.200;2023-12-20T06:25:15;14.90;;;3.08;;
24157;SDS011;12316;50.904;4.200;2023-12-20T06:27:41;16.42;;;3.60;;
24157;SDS011;12316;50.904;4.200;2023-12-20T06:30:07;15.27;;;3.40;;
24157;SDS011;12316;50.904;4.200;2023-12-20T06:32:36;16.17;;;3.13;;
24157;SDS011;12316;50.904;4.200;2023-12-20T06:35:03;15.70;;;3.72;;
24157;SDS011;12316;50.904;4.200;2023-12-20T06:37:30;13.23;;;3.38;;
24157;SDS011;12316;50.904;4.200;2023-12-20T06:39:55;15.50;;;3.03;;
24157;SDS011;12316;50.904;4.200;2023-12-20T06:42:22;10.52;;;3.10;;
24157;SDS011;12316;50.904;4.200;2023-12-20T06:44:47;14.63;;;3.33;;
24157;SDS011;12316;50.904;4.200;2023-12-20T06:47:13;18.40;;;3.45;;
24157;SDS011;12316;50.904;4.200;2023-12-20T06:49:39;12.88;;;3.38;;
24157;SDS011;12316;50.904;4.200;2023-12-20T06:52:05;13.90;;;3.10;;
24157;SDS011;12316;50.904;4.200;2023-12-20T06:54:31;17.45;;;3.25;;
24157;SDS011;12316;50.904;4.200;2023-12-20T06:56:59;18.02;;;3.28;;
24157;SDS011;12316;50.904;4.200;2023-12-20T06:59:24;13.90;;;2.88;;
24157;SDS011;12316;50.904;4.200;2023-12-20T07:01:51;14.02;;;3.00;;
24157;SDS011;12316;50.904;4.200;2023-12-20T07:04:17;10.40;;;2.75;;
24157;SDS011;12316;50.904;4.200;2023-12-20T07:06:47;10.50;;;2.85;;
24157;SDS011;12316;50.904;4.200;2023-12-20T07:09:16;14.95;;;2.85;;
24157;SDS011;12316;50.904;4.200;2023-12-20T07:11:41;16.75;;;3.20;;
24157;SDS011;12316;50.904;4.200;2023-12-20T07:14:07;11.07;;;3.00;;
24157;SDS011;12316;50.904;4.200;2023-12-20T07:16:33;16.30;;;2.80;;
24157;SDS011;12316;50.904;4.200;2023-12-20T07:19:00;15.70;;;3.40;;
24157;SDS011;12316;50.904;4.200;2023-12-20T07:21:27;14.15;;;3.05;;
24157;SDS011;12316;50.904;4.200;2023-12-20T07:23:53;16.02;;;2.90;;
24157;SDS011;12316;50.904;4.200;2023-12-20T07:26:18;16.10;;;2.95;;
24157;SDS011;12316;50.904;4.200;2023-12-20T07:28:44;19.15;;;3.05;;
24157;SDS011;12316;50.904;4.200;2023-12-20T07:31:10;20.05;;;3.35;;
24157;SDS011;12316;50.904;4.200;2023-12-20T07:33:35;15.07;;;3.30;;
24157;SDS011;12316;50.904;4.200;2023-12-20T07:36:01;12.57;;;2.50;;
24157;SDS011;12316;50.904;4.200;2023-12-20T07:38:27;14.07;;;3.05;;
24157;SDS011;12316;50.904;4.200;2023-12-20T07:40:52;12.57;;;2.95;;
24157;SDS011;12316;50.904;4.200;2023-12-20T07:43:18;11.57;;;2.63;;
24157;SDS011;12316;50.904;4.200;2023-12-20T07:45:44;12.88;;;2.95;;
24157;SDS011;12316;50.904;4.200;2023-12-20T07:48:09;12.80;;;2.75;;
24157;SDS011;12316;50.904;4.200;2023-12-20T07:50:35;10.55;;;3.15;;
24157;SDS011;12316;50.904;4.200;2023-12-20T07:53:02;18.83;;;3.25;;
24157;SDS011;12316;50.904;4.200;2023-12-20T07:55:28;15.40;;;3.35;;
24157;SDS011;12316;50.904;4.200;2023-12-20T07:57:55;17.27;;;2.83;;
24157;SDS011;12316;50.904;4.200;2023-12-20T08:00:21;9.30;;;2.80;;
24157;SDS011;12316;50.904;4.200;2023-12-20T08:02:46;18.50;;;3.55;;
24157;SDS011;12316;50.904;4.200;2023-12-20T08:05:12;15.73;;;3.08;;
24157;SDS011;12316;50.904;4.200;2023-12-20T08:07:38;18.35;;;2.63;;
24157;SDS011;12316;50.904;4.200;2023-12-20T08:10:04;15.38;;;2.90;;
24157;SDS011;12316;50.904;4.200;2023-12-20T08:12:30;11.73;;;2.60;;
24157;SDS011;12316;50.904;4.200;2023-12-20T08:14:56;9.95;;;2.45;;
24157;SDS011;12316;50.904;4.200;2023-12-20T08:17:22;16.80;;;2.47;;
24157;SDS011;12316;50.904;4.200;2023-12-20T08:19:48;11.85;;;2.70;;
24157;SDS011;12316;50.904;4.200;2023-12-20T08:22:14;13.75;;;2.53;;
24157;SDS011;12316;50.904;4.200;2023-12-20T08:24:40;17.58;;;2.92;;
24157;SDS011;12316;50.904;4.200;2023-12-20T08:27:05;16.98;;;3.58;;
24157;SDS011;12316;50.904;4.200;2023-12-20T08:29:31;12.30;;;2.90;;
24157;SDS011;12316;50.904;4.200;2023-12-20T08:31:56;11.65;;;2.30;;
24157;SDS011;12316;50.904;4.200;2023-12-20T08:34:22;16.83;;;3.22;;
24157;SDS011;12316;50.904;4.200;2023-12-20T08:36:49;17.08;;;3.00;;
24157;SDS011;12316;50.904;4.200;2023-12-20T08:39:16;15.77;;;2.90;;
24157;SDS011;12316;50.904;4.200;2023-12-20T08:41:42;17.83;;;3.08;;
24157;SDS011;12316;50.904;4.200;2023-12-20T08:44:08;12.80;;;2.55;;
24157;SDS011;12316;50.904;4.200;2023-12-20T08:46:34;11.93;;;2.38;;
24157;SDS011;12316;50.904;4.200;2023-12-20T08:49:00;13.60;;;2.70;;
24157;SDS011;12316;50.904;4.200;2023-12-20T08:51:26;16.48;;;2.83;;
24157;SDS011;12316;50.904;4.200;2023-12-20T08:53:52;14.35;;;3.10;;
24157;SDS011;12316;50.904;4.200;2023-12-20T08:56:18;12.05;;;2.60;;
24157;SDS011;12316;50.904;4.200;2023-12-20T08:58:45;17.40;;;2.90;;
24157;SDS011;12316;50.904;4.200;2023-12-20T09:01:11;18.13;;;3.00;;
24157;SDS011;12316;50.904;4.200;2023-12-20T09:03:37;16.15;;;2.88;;
24157;SDS011;12316;50.904;4.200;2023-12-20T09:06:04;15.32;;;2.72;;
24157;SDS011;12316;50.904;4.200;2023-12-20T09:08:30;12.90;;;2.97;;
24157;SDS011;12316;50.904;4.200;2023-12-20T09:10:57;12.55;;;3.10;;
24157;SDS011;12316;50.904;4.200;2023-12-20T09:13:23;20.88;;;3.17;;
24157;SDS011;12316;50.904;4.200;2023-12-20T09:15:56;13.10;;;2.78;;
24157;SDS011;12316;50.904;4.200;2023-12-20T09:18:22;10.65;;;2.53;;
24157;SDS011;12316;50.904;4.200;2023-12-20T09:20:48;19.08;;;3.00;;
24157;SDS011;12316;50.904;4.200;2023-12-20T09:23:14;12.68;;;2.90;;
24157;SDS011;12316;50.904;4.200;2023-12-20T09:25:39;18.02;;;2.83;;
24157;SDS011;12316;50.904;4.200;2023-12-20T09:28:05;11.52;;;2.38;;
24157;SDS011;12316;50.904;4.200;2023-12-20T09:30:30;12.35;;;2.83;;
24157;SDS011;12316;50.904;4.200;2023-12-20T09:32:56;14.88;;;2.70;;
24157;SDS011;12316;50.904;4.200;2023-12-20T09:35:22;14.85;;;2.58;;
24157;SDS011;12316;50.904;4.200;2023-12-20T09:37:48;13.90;;;2.63;;
24157;SDS011;12316;50.904;4.200;2023-12-20T09:40:14;15.02;;;2.85;;
24157;SDS011;12316;50.904;4.200;2023-12-20T09:42:50;16.65;;;2.85;;
24157;SDS011;12316;50.904;4.200;2023-12-20T09:45:21;10.65;;;2.72;;
24157;SDS011;12316;50.904;4.200;2023-12-20T09:47:48;13.27;;;2.63;;
24157;SDS011;12316;50.904;4.200;2023-12-20T09:50:16;14.73;;;3.05;;
24157;SDS011;12316;50.904;4.200;2023-12-20T09:52:44;15.05;;;2.50;;
24157;SDS011;12316;50.904;4.200;2023-12-20T09:55:15;14.30;;;2.60;;
24157;SDS011;12316;50.904;4.200;2023-12-20T09:57:42;13.02;;;2.67;;
24157;SDS011;12316;50.904;4.200;2023-12-20T10:00:08;13.13;;;2.65;;
24157;SDS011;12316;50.904;4.200;2023-12-20T10:02:34;8.13;;;2.25;;
24157;SDS011;12316;50.904;4.200;2023-12-20T10:05:03;15.15;;;2.90;;
24157;SDS011;12316;50.904;4.200;2023-12-20T10:07:34;11.50;;;2.60;;
24157;SDS011;12316;50.904;4.200;2023-12-20T10:10:00;14.13;;;2.80;;
24157;SDS011;12316;50.904;4.200;2023-12-20T10:12:27;16.88;;;2.65;;
24157;SDS011;12316;50.904;4.200;2023-12-20T10:14:53;12.38;;;3.05;;
24157;SDS011;12316;50.904;4.200;2023-12-20T10:17:19;14.90;;;2.95;;
24157;SDS011;12316;50.904;4.200;2023-12-20T10:19:47;12.10;;;2.40;;
24157;SDS011;12316;50.904;4.200;2023-12-20T10:22:12;13.40;;;2.72;;
24157;SDS011;12316;50.904;4.200;2023-12-20T10:24:38;13.30;;;2.97;;
24157;SDS011;12316;50.904;4.200;2023-12-20T10:27:06;11.45;;;2.33;;
24157;SDS011;12316;50.904;4.200;2023-12-20T10:29:35;13.45;;;2.67;;
24157;SDS011;12316;50.904;4.200;2023-12-20T10:34:53;10.00;;;3.15;;
24157;SDS011;12316;50.904;4.200;2023-12-20T10:37:20;10.57;;;2.60;;
24157;SDS011;12316;50.904;4.200;2023-12-20T10:39:52;11.60;;;2.70;;
24157;SDS011;12316;50.904;4.200;2023-12-20T10:42:22;14.55;;;2.72;;
24157;SDS011;12316;50.904;4.200;2023-12-20T10:44:51;12.93;;;2.60;;
24157;SDS011;12316;50.904;4.200;2023-12-20T10:47:19;14.18;;;2.78;;
24157;SDS011;12316;50.904;4.200;2023-12-20T10:49:45;14.63;;;2.60;;
24157;SDS011;12316;50.904;4.200;2023-12-20T10:52:12;10.35;;;2.70;;
24157;SDS011;12316;50.904;4.200;2023-12-20T10:54:41;13.40;;;2.75;;
24157;SDS011;12316;50.904;4.200;2023-12-20T10:57:07;18.08;;;3.03;;
24157;SDS011;12316;50.904;4.200;2023-12-20T10:59:36;14.07;;;2.72;;
24157;SDS011;12316;50.904;4.200;2023-12-20T11:02:03;11.55;;;2.35;;
24157;SDS011;12316;50.904;4.200;2023-12-20T11:04:36;15.52;;;2.78;;
24157;SDS011;12316;50.904;4.200;2023-12-20T11:07:19;11.77;;;2.78;;
24157;SDS011;12316;50.904;4.200;2023-12-20T11:09:49;15.90;;;2.63;;
24157;SDS011;12316;50.904;4.200;2023-12-20T11:14:54;16.20;;;3.00;;
24157;SDS011;12316;50.904;4.200;2023-12-20T11:17:27;14.73;;;3.05;;
24157;SDS011;12316;50.904;4.200;2023-12-20T11:22:22;14.27;;;2.65;;
24157;SDS011;12316;50.904;4.200;2023-12-20T11:24:52;15.20;;;2.85;;
24157;SDS011;12316;50.904;4.200;2023-12-20T11:27:18;14.23;;;2.90;;
24157;SDS011;12316;50.904;4.200;2023-12-20T11:29:51;16.65;;;2.72;;
24157;SDS011;12316;50.904;4.200;2023-12-20T11:34:50;13.32;;;2.75;;
24157;SDS011;12316;50.904;4.200;2023-12-20T11:37:18;10.68;;;2.60;;
24157;SDS011;12316;50.904;4.200;2023-12-20T11:39:44;10.88;;;2.58;;
24157;SDS011;12316;50.904;4.200;2023-12-20T11:42:10;11.35;;;2.80;;
24157;SDS011;12316;50.904;4.200;2023-12-20T11:44:36;12.27;;;2.33;;
24157;SDS011;12316;50.904;4.200;2023-12-20T11:47:02;14.77;;;3.00;;
24157;SDS011;12316;50.904;4.200;2023-12-20T11:49:28;14.73;;;2.80;;
24157;SDS011;12316;50.904;4.200;2023-12-20T11:51:55;14.13;;;3.05;;
24157;SDS011;12316;50.904;4.200;2023-12-20T11:54:22;12.73;;;2.88;;
24157;SDS011;12316;50.904;4.200;2023-12-20T11:56:47;11.85;;;2.60;;
24157;SDS011;12316;50.904;4.200;2023-12-20T11:59:13;17.20;;;3.50;;
24157;SDS011;12316;50.904;4.200;2023-12-20T12:01:40;14.90;;;2.92;;
24157;SDS011;12316;50.904;4.200;2023-12-20T12:04:12;13.73;;;2.95;;
24157;SDS011;12316;50.904;4.200;2023-12-20T12:06:39;16.02;;;3.00;;
24157;SDS011;12316;50.904;4.200;2023-12-20T12:09:04;15.98;;;3.08;;
24157;SDS011;12316;50.904;4.200;2023-12-20T12:11:30;9.38;;;2.67;;
24157;SDS011;12316;50.904;4.200;2023-12-20T12:13:56;13.23;;;2.85;;
24157;SDS011;12316;50.904;4.200;2023-12-20T12:16:21;16.55;;;3.20;;
24157;SDS011;12316;50.904;4.200;2023-12-20T12:18:54;13.45;;;2.80;;
24157;SDS011;12316;50.904;4.200;2023-12-20T12:21:21;12.70;;;2.63;;
24157;SDS011;12316;50.904;4.200;2023-12-20T12:23:47;12.90;;;3.20;;
24157;SDS011;12316;50.904;4.200;2023-12-20T12:26:12;15.80;;;3.10;;
24157;SDS011;12316;50.904;4.200;2023-12-20T12:28:41;11.00;;;2.80;;
24157;SDS011;12316;50.904;4.200;2023-12-20T12:31:07;14.98;;;3.15;;
24157;SDS011;12316;50.904;4.200;2023-12-20T12:33:34;15.68;;;3.20;;
24157;SDS011;12316;50.904;4.200;2023-12-20T12:36:00;13.52;;;2.80;;
24157;SDS011;12316;50.904;4.200;2023-12-20T12:38:26;10.80;;;2.67;;
24157;SDS011;12316;50.904;4.200;2023-12-20T12:40:52;14.30;;;3.55;;
24157;SDS011;12316;50.904;4.200;2023-12-20T12:43:19;14.25;;;3.40;;
24157;SDS011;12316;50.904;4.200;2023-12-20T12:45:45;20.20;;;4.13;;
24157;SDS011;12316;50.904;4.200;2023-12-20T12:48:10;14.27;;;3.50;;
24157;SDS011;12316;50.904;4.200;2023-12-20T12:50:36;13.13;;;3.60;;
24157;SDS011;12316;50.904;4.200;2023-12-20T12:53:02;13.80;;;3.00;;
24157;SDS011;12316;50.904;4.200;2023-12-20T12:55:28;16.30;;;3.20;;
24157;SDS011;12316;50.904;4.200;2023-12-20T12:57:53;14.57;;;3.58;;
24157;SDS011;12316;50.904;4.200;2023-12-20T13:00:20;13.57;;;2.80;;
24157;SDS011;12316;50.904;4.200;2023-12-20T13:02:46;9.10;;;2.58;;
24157;SDS011;12316;50.904;4.200;2023-12-20T13:05:12;12.07;;;2.88;;
24157;SDS011;12316;50.904;4.200;2023-12-20T13:07:38;13.75;;;2.97;;
24157;SDS011;12316;50.904;4.200;2023-12-20T13:10:04;14.65;;;2.90;;
24157;SDS011;12316;50.904;4.200;2023-12-20T13:12:31;15.23;;;2.90;;
24157;SDS011;12316;50.904;4.200;2023-12-20T13:14:57;12.20;;;3.10;;
24157;SDS011;12316;50.904;4.200;2023-12-20T13:17:22;15.20;;;2.83;;
24157;SDS011;12316;50.904;4.200;2023-12-20T13:19:48;13.30;;;2.60;;
24157;SDS011;12316;50.904;4.200;2023-12-20T13:22:14;12.68;;;3.13;;
24157;SDS011;12316;50.904;4.200;2023-12-20T13:24:41;13.15;;;2.55;;
24157;SDS011;12316;50.904;4.200;2023-12-20T13:27:09;12.68;;;2.95;;
24157;SDS011;12316;50.904;4.200;2023-12-20T13:29:35;13.13;;;2.92;;
24157;SDS011;12316;50.904;4.200;2023-12-20T13:32:00;17.95;;;3.30;;
24157;SDS011;12316;50.904;4.200;2023-12-20T13:34:26;12.15;;;2.97;;
24157;SDS011;12316;50.904;4.200;2023-12-20T13:36:52;11.48;;;2.83;;
24157;SDS011;12316;50.904;4.200;2023-12-20T13:39:17;15.02;;;2.90;;
24157;SDS011;12316;50.904;4.200;2023-12-20T13:41:43;19.00;;;3.60;;
24157;SDS011;12316;50.904;4.200;2023-12-20T13:44:09;14.00;;;2.95;;
24157;SDS011;12316;50.904;4.200;2023-12-20T13:46:35;13.05;;;2.78;;
24157;SDS011;12316;50.904;4.200;2023-12-20T13:49:01;14.95;;;3.10;;
24157;SDS011;12316;50.904;4.200;2023-12-20T13:51:27;14.73;;;2.90;;
24157;SDS011;12316;50.904;4.200;2023-12-20T13:53:53;14.10;;;2.80;;
24157;SDS011;12316;50.904;4.200;2023-12-20T13:56:19;14.43;;;3.92;;
24157;SDS011;12316;50.904;4.200;2023-12-20T13:58:45;16.38;;;3.25;;
24157;SDS011;12316;50.904;4.200;2023-12-20T14:01:12;13.38;;;3.03;;
24157;SDS011;12316;50.904;4.200;2023-12-20T14:03:37;12.60;;;2.72;;
24157;SDS011;12316;50.904;4.200;2023-12-20T14:06:03;11.68;;;2.58;;
24157;SDS011;12316;50.904;4.200;2023-12-20T14:08:29;11.40;;;2.90;;
24157;SDS011;12316;50.904;4.200;2023-12-20T14:10:54;9.73;;;2.53;;
24157;SDS011;12316;50.904;4.200;2023-12-20T14:13:20;10.35;;;2.40;;
24157;SDS011;12316;50.904;4.200;2023-12-20T14:15:46;13.40;;;3.00;;
24157;SDS011;12316;50.904;4.200;2023-12-20T14:18:13;12.20;;;3.03;;
24157;SDS011;12316;50.904;4.200;2023-12-20T14:20:40;19.27;;;3.28;;
24157;SDS011;12316;50.904;4.200;2023-12-20T14:23:07;12.43;;;2.67;;
24157;SDS011;12316;50.904;4.200;2023-12-20T14:25:34;10.70;;;2.72;;
24157;SDS011;12316;50.904;4.200;2023-12-20T14:28:02;9.57;;;2.45;;
24157;SDS011;12316;50.904;4.200;2023-12-20T14:30:29;10.45;;;2.45;;
24157;SDS011;12316;50.904;4.200;2023-12-20T14:32:54;8.48;;;2.72;;
24157;SDS011;12316;50.904;4.200;2023-12-20T14:35:20;11.73;;;2.55;;
24157;SDS011;12316;50.904;4.200;2023-12-20T14:37:45;12.15;;;2.70;;
24157;SDS011;12316;50.904;4.200;2023-12-20T14:40:12;14.57;;;3.03;;
24157;SDS011;12316;50.904;4.200;2023-12-20T14:42:41;9.20;;;2.45;;